sensor_id;sensor_type;location;lat;lon;timestamp;temperature;humidity
46926;DHT22;32667;48.248;-1.700;2023-12-29T00:00:16;11.00;79.00
46926;DHT22;32667;48.248;-1.700;2023-12-29T00:02:42;11.00;78.90
46926;DHT22;32667;48.248;-1.700;2023-12-29T00:05:10;11.00;78.90
46926;DHT22;32667;48.248;-1.700;2023-12-29T00:07:38;11.10;78.90
46926;DHT22;32667;48.248;-1.700;2023-12-29T00:10:04;11.10;78.90
46926;DHT22;32667;48.248;-1.700;2023-12-29T00:12:37;11.10;78.80
46926;DHT22;32667;48.248;-1.700;2023-12-29T00:15:03;11.10;78.80
46926;DHT22;32667;48.248;-1.700;2023-12-29T00:17:31;11.10;78.80
46926;DHT22;32667;48.248;-1.700;2023-12-29T00:20:06;11.10;78.70
46926;DHT22;32667;48.248;-1.700;2023-12-29T00:22:34;11.20;78.70
46926;DHT22;32667;48.248;-1.700;2023-12-29T00:24:59;11.20;78.60
46926;DHT22;32667;48.248;-1.700;2023-12-29T00:27:30;11.20;78.60
46926;DHT22;32667;48.248;-1.700;2023-12-29T00:29:58;11.20;78.60
46926;DHT22;32667;48.248;-1.700;2023-12-29T00:32:24;11.20;78.60
46926;DHT22;32667;48.248;-1.700;2023-12-29T00:34:54;11.20;78.70
46926;DHT22;32667;48.248;-1.700;2023-12-29T00:37:22;11.20;78.70
46926;DHT22;32667;48.248;-1.700;2023-12-29T00:39:50;11.20;78.60
46926;DHT22;32667;48.248;-1.700;2023-12-29T00:42:16;11.20;78.70
46926;DHT22;32667;48.248;-1.700;2023-12-29T00:44:42;11.20;78.70
46926;DHT22;32667;48.248;-1.700;2023-12-29T00:47:08;11.20;78.70
46926;DHT22;32667;48.248;-1.700;2023-12-29T00:49:33;11.20;78.70
46926;DHT22;32667;48.248;-1.700;2023-12-29T00:51:59;11.20;78.70
46926;DHT22;32667;48.248;-1.700;2023-12-29T00:54:25;11.20;78.70
46926;DHT22;32667;48.248;-1.700;2023-12-29T00:56:52;11.30;78.70
46926;DHT22;32667;48.248;-1.700;2023-12-29T00:59:19;11.20;78.70
46926;DHT22;32667;48.248;-1.700;2023-12-29T01:01:50;11.20;78.70
46926;DHT22;32667;48.248;-1.700;2023-12-29T01:04:16;11.20;78.80
46926;DHT22;32667;48.248;-1.700;2023-12-29T01:06:44;11.20;78.80
46926;DHT22;32667;48.248;-1.700;2023-12-29T01:09:12;11.20;78.80
46926;DHT22;32667;48.248;-1.700;2023-12-29T01:11:38;11.30;78.80
46926;DHT22;32667;48.248;-1.700;2023-12-29T01:14:04;11.30;78.80
46926;DHT22;32667;48.248;-1.700;2023-12-29T01:16:33;11.30;78.70
46926;DHT22;32667;48.248;-1.700;2023-12-29T01:19:02;11.30;78.60
46926;DHT22;32667;48.248;-1.700;2023-12-29T01:21:30;11.40;78.60
46926;DHT22;32667;48.248;-1.700;2023-12-29T01:24:00;11.40;78.50
46926;DHT22;32667;48.248;-1.700;2023-12-29T01:26:26;11.50;78.50
46926;DHT22;32667;48.248;-1.700;2023-12-29T01:28:54;11.50;78.40
46926;DHT22;32667;48.248;-1.700;2023-12-29T01:31:20;11.50;78.40
46926;DHT22;32667;48.248;-1.700;2023-12-29T01:33:50;11.50;78.40
46926;DHT22;32667;48.248;-1.700;2023-12-29T01:36:19;11.50;78.40
46926;DHT22;32667;48.248;-1.700;2023-12-29T01:38:44;11.50;78.40
46926;DHT22;32667;48.248;-1.700;2023-12-29T01:41:10;11.50;78.40
46926;DHT22;32667;48.248;-1.700;2023-12-29T01:43:36;11.50;78.50
46926;DHT22;32667;48.248;-1.700;2023-12-29T01:46:02;11.50;78.50
46926;DHT22;32667;48.248;-1.700;2023-12-29T01:48:28;11.50;78.50
46926;DHT22;32667;48.248;-1.700;2023-12-29T01:50:54;11.40;78.60
46926;DHT22;32667;48.248;-1.700;2023-12-29T01:53:21;11.50;78.70
46926;DHT22;32667;48.248;-1.700;2023-12-29T01:55:47;11.50;78.70
46926;DHT22;32667;48.248;-1.700;2023-12-29T01:58:16;11.50;78.70
46926;DHT22;32667;48.248;-1.700;2023-12-29T02:00:42;11.50;78.60
46926;DHT22;32667;48.248;-1.700;2023-12-29T02:03:08;11.50;78.60
46926;DHT22;32667;48.248;-1.700;2023-12-29T02:05:37;11.50;78.60
46926;DHT22;32667;48.248;-1.700;2023-12-29T02:08:07;11.50;78.60
46926;DHT22;32667;48.248;-1.700;2023-12-29T02:10:33;11.50;79.20
46926;DHT22;32667;48.248;-1.700;2023-12-29T02:12:59;11.50;78.70
46926;DHT22;32667;48.248;-1.700;2023-12-29T02:15:26;11.40;78.60
46926;DHT22;32667;48.248;-1.700;2023-12-29T02:18:06;11.50;78.80
46926;DHT22;32667;48.248;-1.700;2023-12-29T02:20:34;11.40;78.80
46926;DHT22;32667;48.248;-1.700;2023-12-29T02:23:03;11.40;78.80
46926;DHT22;32667;48.248;-1.700;2023-12-29T02:25:32;11.40;78.80
46926;DHT22;32667;48.248;-1.700;2023-12-29T02:28:12;11.40;78.80
46926;DHT22;32667;48.248;-1.700;2023-12-29T02:30:51;11.40;78.90
46926;DHT22;32667;48.248;-1.700;2023-12-29T02:33:23;11.30;78.90
46926;DHT22;32667;48.248;-1.700;2023-12-29T02:35:52;11.40;79.00
46926;DHT22;32667;48.248;-1.700;2023-12-29T02:38:20;11.30;78.90
46926;DHT22;32667;48.248;-1.700;2023-12-29T02:40:48;11.30;78.90
46926;DHT22;32667;48.248;-1.700;2023-12-29T02:43:13;11.30;79.00
46926;DHT22;32667;48.248;-1.700;2023-12-29T02:45:39;11.30;79.00
46926;DHT22;32667;48.248;-1.700;2023-12-29T02:48:05;11.30;78.90
46926;DHT22;32667;48.248;-1.700;2023-12-29T02:50:31;11.30;78.90
46926;DHT22;32667;48.248;-1.700;2023-12-29T02:52:57;11.30;78.90
46926;DHT22;32667;48.248;-1.700;2023-12-29T02:55:22;11.30;78.90
46926;DHT22;32667;48.248;-1.700;2023-12-29T02:57:48;11.30;78.90
46926;DHT22;32667;48.248;-1.700;2023-12-29T03:00:14;11.30;78.90
46926;DHT22;32667;48.248;-1.700;2023-12-29T03:02:40;11.30;79.50
46926;DHT22;32667;48.248;-1.700;2023-12-29T03:05:08;11.30;78.90
46926;DHT22;32667;48.248;-1.700;2023-12-29T03:07:36;11.30;78.90
46926;DHT22;32667;48.248;-1.700;2023-12-29T03:10:03;11.30;78.90
46926;DHT22;32667;48.248;-1.700;2023-12-29T03:12:28;11.30;78.90
46926;DHT22;32667;48.248;-1.700;2023-12-29T03:14:56;11.30;79.00
46926;DHT22;32667;48.248;-1.700;2023-12-29T03:17:24;11.30;79.00
46926;DHT22;32667;48.248;-1.700;2023-12-29T03:19:58;11.30;79.00
46926;DHT22;32667;48.248;-1.700;2023-12-29T03:22:24;11.30;79.00
46926;DHT22;32667;48.248;-1.700;2023-12-29T03:24:50;11.30;79.00
46926;DHT22;32667;48.248;-1.700;2023-12-29T03:27:15;11.30;79.00
46926;DHT22;32667;48.248;-1.700;2023-12-29T03:29:41;11.30;79.00
46926;DHT22;32667;48.248;-1.700;2023-12-29T03:32:07;11.30;79.00
46926;DHT22;32667;48.248;-1.700;2023-12-29T03:34:35;11.30;79.00
46926;DHT22;32667;48.248;-1.700;2023-12-29T03:37:01;11.20;79.10
46926;DHT22;32667;48.248;-1.700;2023-12-29T03:39:29;11.20;79.00
46926;DHT22;32667;48.248;-1.700;2023-12-29T03:41:55;11.30;79.10
46926;DHT22;32667;48.248;-1.700;2023-12-29T03:44:21;11.20;79.10
46926;DHT22;32667;48.248;-1.700;2023-12-29T03:46:49;11.20;79.10
46926;DHT22;32667;48.248;-1.700;2023-12-29T03:49:15;11.30;79.10
46926;DHT22;32667;48.248;-1.700;2023-12-29T03:51:41;11.20;79.10
46926;DHT22;32667;48.248;-1.700;2023-12-29T03:54:07;11.30;79.20
46926;DHT22;32667;48.248;-1.700;2023-12-29T03:56:32;11.30;79.20
46926;DHT22;32667;48.248;-1.700;2023-12-29T03:59:00;11.30;79.20
46926;DHT22;32667;48.248;-1.700;2023-12-29T04:01:26;11.30;79.20
46926;DHT22;32667;48.248;-1.700;2023-12-29T04:03:53;11.30;79.20
46926;DHT22;32667;48.248;-1.700;2023-12-29T04:06:18;11.30;79.20
46926;DHT22;32667;48.248;-1.700;2023-12-29T04:08:47;11.20;79.20
46926;DHT22;32667;48.248;-1.700;2023-12-29T04:11:12;11.20;79.20
46926;DHT22;32667;48.248;-1.700;2023-12-29T04:13:42;11.20;79.20
46926;DHT22;32667;48.248;-1.700;2023-12-29T04:16:08;11.20;79.20
46926;DHT22;32667;48.248;-1.700;2023-12-29T04:18:38;11.20;79.20
46926;DHT22;32667;48.248;-1.700;2023-12-29T04:21:04;11.20;79.20
46926;DHT22;32667;48.248;-1.700;2023-12-29T04:23:29;11.20;79.20
46926;DHT22;32667;48.248;-1.700;2023-12-29T04:25:57;11.20;79.20
46926;DHT22;32667;48.248;-1.700;2023-12-29T04:28:28;11.20;79.20
46926;DHT22;32667;48.248;-1.700;2023-12-29T04:30:53;11.20;79.30
46926;DHT22;32667;48.248;-1.700;2023-12-29T04:33:19;11.20;79.30
46926;DHT22;32667;48.248;-1.700;2023-12-29T04:35:45;11.20;79.20
46926;DHT22;32667;48.248;-1.700;2023-12-29T04:38:11;11.20;79.30
46926;DHT22;32667;48.248;-1.700;2023-12-29T04:40:39;11.10;79.30
46926;DHT22;32667;48.248;-1.700;2023-12-29T04:43:04;11.10;79.30
46926;DHT22;32667;48.248;-1.700;2023-12-29T04:45:37;11.10;79.40
46926;DHT22;32667;48.248;-1.700;2023-12-29T04:48:03;11.10;79.40
46926;DHT22;32667;48.248;-1.700;2023-12-29T04:50:29;11.10;79.40
46926;DHT22;32667;48.248;-1.700;2023-12-29T04:52:57;11.00;79.40
46926;DHT22;32667;48.248;-1.700;2023-12-29T04:55:25;11.10;79.40
46926;DHT22;32667;48.248;-1.700;2023-12-29T04:57:51;11.10;79.40
46926;DHT22;32667;48.248;-1.700;2023-12-29T05:00:17;11.00;79.40
46926;DHT22;32667;48.248;-1.700;2023-12-29T05:02:42;11.00;79.40
46926;DHT22;32667;48.248;-1.700;2023-12-29T05:05:08;11.00;79.50
46926;DHT22;32667;48.248;-1.700;2023-12-29T05:07:37;11.00;79.40
46926;DHT22;32667;48.248;-1.700;2023-12-29T05:10:02;11.10;79.40
46926;DHT22;32667;48.248;-1.700;2023-12-29T05:12:32;11.10;79.40
46926;DHT22;32667;48.248;-1.700;2023-12-29T05:14:58;11.10;79.40
46926;DHT22;32667;48.248;-1.700;2023-12-29T05:17:23;11.10;79.40
46926;DHT22;32667;48.248;-1.700;2023-12-29T05:19:49;11.10;79.40
46926;DHT22;32667;48.248;-1.700;2023-12-29T05:22:15;11.10;79.40
46926;DHT22;32667;48.248;-1.700;2023-12-29T05:24:45;11.10;79.40
46926;DHT22;32667;48.248;-1.700;2023-12-29T05:27:13;11.10;79.30
46926;DHT22;32667;48.248;-1.700;2023-12-29T05:29:42;11.10;79.30
46926;DHT22;32667;48.248;-1.700;2023-12-29T05:32:07;11.20;79.30
46926;DHT22;32667;48.248;-1.700;2023-12-29T05:34:34;11.20;79.20
46926;DHT22;32667;48.248;-1.700;2023-12-29T05:37:02;11.30;79.20
46926;DHT22;32667;48.248;-1.700;2023-12-29T05:39:28;11.30;79.00
46926;DHT22;32667;48.248;-1.700;2023-12-29T05:41:54;11.30;79.00
46926;DHT22;32667;48.248;-1.700;2023-12-29T05:44:20;11.30;78.90
46926;DHT22;32667;48.248;-1.700;2023-12-29T05:46:51;11.30;78.90
46926;DHT22;32667;48.248;-1.700;2023-12-29T05:49:19;11.40;79.00
46926;DHT22;32667;48.248;-1.700;2023-12-29T05:51:49;11.40;78.90
46926;DHT22;32667;48.248;-1.700;2023-12-29T05:54:15;11.40;78.90
46926;DHT22;32667;48.248;-1.700;2023-12-29T05:56:40;11.40;78.90
46926;DHT22;32667;48.248;-1.700;2023-12-29T05:59:11;11.40;78.80
46926;DHT22;32667;48.248;-1.700;2023-12-29T06:01:37;11.40;78.90
46926;DHT22;32667;48.248;-1.700;2023-12-29T06:04:03;11.40;79.10
46926;DHT22;32667;48.248;-1.700;2023-12-29T06:06:28;11.50;78.90
46926;DHT22;32667;48.248;-1.700;2023-12-29T06:08:54;11.40;78.90
46926;DHT22;32667;48.248;-1.700;2023-12-29T06:11:28;11.50;78.90
46926;DHT22;32667;48.248;-1.700;2023-12-29T06:13:54;11.40;78.90
46926;DHT22;32667;48.248;-1.700;2023-12-29T06:16:22;11.40;78.90
46926;DHT22;32667;48.248;-1.700;2023-12-29T06:18:58;11.50;78.90
46926;DHT22;32667;48.248;-1.700;2023-12-29T06:21:24;11.40;78.90
46926;DHT22;32667;48.248;-1.700;2023-12-29T06:23:50;11.40;78.90
46926;DHT22;32667;48.248;-1.700;2023-12-29T06:26:16;11.40;78.90
46926;DHT22;32667;48.248;-1.700;2023-12-29T06:28:45;11.40;78.90
46926;DHT22;32667;48.248;-1.700;2023-12-29T06:31:12;11.40;78.90
46926;DHT22;32667;48.248;-1.700;2023-12-29T06:33:42;11.40;79.00
46926;DHT22;32667;48.248;-1.700;2023-12-29T06:36:08;11.40;79.00
46926;DHT22;32667;48.248;-1.700;2023-12-29T06:38:35;11.30;79.00
46926;DHT22;32667;48.248;-1.700;2023-12-29T06:41:03;11.30;79.00
46926;DHT22;32667;48.248;-1.700;2023-12-29T06:43:29;11.40;79.10
46926;DHT22;32667;48.248;-1.700;2023-12-29T06:45:55;11.30;79.10
46926;DHT22;32667;48.248;-1.700;2023-12-29T06:48:22;11.30;79.00
46926;DHT22;32667;48.248;-1.700;2023-12-29T06:50:49;11.30;79.00
46926;DHT22;32667;48.248;-1.700;2023-12-29T06:53:18;11.30;79.00
46926;DHT22;32667;48.248;-1.700;2023-12-29T06:55:43;11.40;79.10
46926;DHT22;32667;48.248;-1.700;2023-12-29T06:58:09;11.40;79.00
46926;DHT22;32667;48.248;-1.700;2023-12-29T07:00:36;11.30;79.00
46926;DHT22;32667;48.248;-1.700;2023-12-29T07:03:02;11.40;79.00
46926;DHT22;32667;48.248;-1.700;2023-12-29T07:05:27;11.40;79.00
46926;DHT22;32667;48.248;-1.700;2023-12-29T07:07:56;11.30;79.00
46926;DHT22;32667;48.248;-1.700;2023-12-29T07:10:26;11.40;79.00
46926;DHT22;32667;48.248;-1.700;2023-12-29T07:12:52;11.40;79.00
46926;DHT22;32667;48.248;-1.700;2023-12-29T07:15:17;11.40;79.00
46926;DHT22;32667;48.248;-1.700;2023-12-29T07:17:43;11.40;79.00
46926;DHT22;32667;48.248;-1.700;2023-12-29T07:20:12;11.40;79.10
46926;DHT22;32667;48.248;-1.700;2023-12-29T07:22:38;11.40;79.00
46926;DHT22;32667;48.248;-1.700;2023-12-29T07:25:06;11.40;79.00
46926;DHT22;32667;48.248;-1.700;2023-12-29T07:27:32;11.40;79.00
46926;DHT22;32667;48.248;-1.700;2023-12-29T07:30:04;11.40;79.00
46926;DHT22;32667;48.248;-1.700;2023-12-29T07:32:30;11.40;79.00
46926;DHT22;32667;48.248;-1.700;2023-12-29T07:34:59;11.50;79.00
46926;DHT22;32667;48.248;-1.700;2023-12-29T07:37:24;11.50;79.00
46926;DHT22;32667;48.248;-1.700;2023-12-29T07:39:50;11.50;79.00
46926;DHT22;32667;48.248;-1.700;2023-12-29T07:42:17;11.50;79.00
46926;DHT22;32667;48.248;-1.700;2023-12-29T07:44:43;11.50;79.00
46926;DHT22;32667;48.248;-1.700;2023-12-29T07:47:09;11.50;79.00
46926;DHT22;32667;48.248;-1.700;2023-12-29T07:49:37;11.40;79.00
46926;DHT22;32667;48.248;-1.700;2023-12-29T07:52:03;11.40;79.10
46926;DHT22;32667;48.248;-1.700;2023-12-29T07:54:28;11.40;79.10
46926;DHT22;32667;48.248;-1.700;2023-12-29T07:56:56;11.40;79.10
46926;DHT22;32667;48.248;-1.700;2023-12-29T07:59:24;11.40;79.10
46926;DHT22;32667;48.248;-1.700;2023-12-29T08:01:55;11.40;79.10
46926;DHT22;32667;48.248;-1.700;2023-12-29T08:04:23;11.40;79.00
46926;DHT22;32667;48.248;-1.700;2023-12-29T08:06:49;11.40;79.10
46926;DHT22;32667;48.248;-1.700;2023-12-29T08:09:14;11.40;79.10
46926;DHT22;32667;48.248;-1.700;2023-12-29T08:11:40;11.40;79.00
46926;DHT22;32667;48.248;-1.700;2023-12-29T08:14:25;11.40;79.10
46926;DHT22;32667;48.248;-1.700;2023-12-29T08:16:51;11.40;79.10
46926;DHT22;32667;48.248;-1.700;2023-12-29T08:19:17;11.40;79.10
46926;DHT22;32667;48.248;-1.700;2023-12-29T08:21:45;11.40;79.10
46926;DHT22;32667;48.248;-1.700;2023-12-29T08:24:13;11.40;79.10
46926;DHT22;32667;48.248;-1.700;2023-12-29T08:26:45;11.40;79.10
46926;DHT22;32667;48.248;-1.700;2023-12-29T08:29:14;11.40;79.10
46926;DHT22;32667;48.248;-1.700;2023-12-29T08:31:42;11.40;79.00
46926;DHT22;32667;48.248;-1.700;2023-12-29T08:34:15;11.50;79.00
46926;DHT22;32667;48.248;-1.700;2023-12-29T08:36:41;11.50;79.00
46926;DHT22;32667;48.248;-1.700;2023-12-29T08:39:07;11.50;79.00
46926;DHT22;32667;48.248;-1.700;2023-12-29T08:41:35;11.50;78.90
46926;DHT22;32667;48.248;-1.700;2023-12-29T08:44:01;11.50;78.90
46926;DHT22;32667;48.248;-1.700;2023-12-29T08:46:26;11.60;78.90
46926;DHT22;32667;48.248;-1.700;2023-12-29T08:48:52;11.60;78.80
46926;DHT22;32667;48.248;-1.700;2023-12-29T08:51:18;11.60;78.70
46926;DHT22;32667;48.248;-1.700;2023-12-29T08:53:44;11.70;78.80
46926;DHT22;32667;48.248;-1.700;2023-12-29T08:56:17;11.70;78.60
46926;DHT22;32667;48.248;-1.700;2023-12-29T08:58:43;11.80;78.60
46926;DHT22;32667;48.248;-1.700;2023-12-29T09:01:09;11.80;78.50
46926;DHT22;32667;48.248;-1.700;2023-12-29T09:03:36;11.80;78.50
46926;DHT22;32667;48.248;-1.700;2023-12-29T09:06:02;11.90;78.50
46926;DHT22;32667;48.248;-1.700;2023-12-29T09:08:29;11.90;78.40
46926;DHT22;32667;48.248;-1.700;2023-12-29T09:10:57;12.00;78.50
46926;DHT22;32667;48.248;-1.700;2023-12-29T09:13:23;12.00;78.40
46926;DHT22;32667;48.248;-1.700;2023-12-29T09:15:50;12.10;78.40
46926;DHT22;32667;48.248;-1.700;2023-12-29T09:18:16;12.10;78.40
46926;DHT22;32667;48.248;-1.700;2023-12-29T09:20:42;12.10;78.30
46926;DHT22;32667;48.248;-1.700;2023-12-29T09:23:08;12.10;78.30
46926;DHT22;32667;48.248;-1.700;2023-12-29T09:25:34;12.10;78.30
46926;DHT22;32667;48.248;-1.700;2023-12-29T09:28:02;12.10;78.30
46926;DHT22;32667;48.248;-1.700;2023-12-29T09:30:28;12.20;78.30
46926;DHT22;32667;48.248;-1.700;2023-12-29T09:32:56;12.20;78.30
46926;DHT22;32667;48.248;-1.700;2023-12-29T09:35:29;12.30;78.30
46926;DHT22;32667;48.248;-1.700;2023-12-29T09:37:57;12.30;78.30
46926;DHT22;32667;48.248;-1.700;2023-12-29T09:40:22;12.30;78.20
46926;DHT22;32667;48.248;-1.700;2023-12-29T09:42:51;12.40;78.20
46926;DHT22;32667;48.248;-1.700;2023-12-29T09:45:23;12.40;78.10
46926;DHT22;32667;48.248;-1.700;2023-12-29T09:47:53;12.40;78.00
46926;DHT22;32667;48.248;-1.700;2023-12-29T09:50:21;12.50;78.00
46926;DHT22;32667;48.248;-1.700;2023-12-29T09:52:48;12.50;78.00
46926;DHT22;32667;48.248;-1.700;2023-12-29T09:55:23;12.60;78.00
46926;DHT22;32667;48.248;-1.700;2023-12-29T09:57:49;12.60;77.90
46926;DHT22;32667;48.248;-1.700;2023-12-29T10:00:16;12.60;77.90
46926;DHT22;32667;48.248;-1.700;2023-12-29T10:02:42;12.60;77.90
46926;DHT22;32667;48.248;-1.700;2023-12-29T10:05:08;12.70;77.90
46926;DHT22;32667;48.248;-1.700;2023-12-29T10:07:38;12.70;77.90
46926;DHT22;32667;48.248;-1.700;2023-12-29T10:10:06;12.70;77.80
46926;DHT22;32667;48.248;-1.700;2023-12-29T10:12:33;12.80;78.40
46926;DHT22;32667;48.248;-1.700;2023-12-29T10:15:06;12.80;77.80
46926;DHT22;32667;48.248;-1.700;2023-12-29T10:21:03;12.90;77.70
46926;DHT22;32667;48.248;-1.700;2023-12-29T10:26:21;12.90;77.60
46926;DHT22;32667;48.248;-1.700;2023-12-29T10:28:48;12.90;77.60
46926;DHT22;32667;48.248;-1.700;2023-12-29T10:31:17;13.00;77.60
46926;DHT22;32667;48.248;-1.700;2023-12-29T10:33:45;13.00;77.60
46926;DHT22;32667;48.248;-1.700;2023-12-29T10:36:16;13.00;77.70
46926;DHT22;32667;48.248;-1.700;2023-12-29T10:38:44;13.00;77.70
46926;DHT22;32667;48.248;-1.700;2023-12-29T10:41:11;13.00;77.70
46926;DHT22;32667;48.248;-1.700;2023-12-29T10:43:38;13.10;77.80
46926;DHT22;32667;48.248;-1.700;2023-12-29T10:46:10;13.00;77.70
46926;DHT22;32667;48.248;-1.700;2023-12-29T10:48:37;13.10;77.70
46926;DHT22;32667;48.248;-1.700;2023-12-29T10:51:05;13.10;77.70
46926;DHT22;32667;48.248;-1.700;2023-12-29T10:53:35;13.10;77.70
46926;DHT22;32667;48.248;-1.700;2023-12-29T10:56:04;13.20;77.70
46926;DHT22;32667;48.248;-1.700;2023-12-29T10:58:32;13.20;77.70
46926;DHT22;32667;48.248;-1.700;2023-12-29T11:01:14;13.20;77.70
46926;DHT22;32667;48.248;-1.700;2023-12-29T11:03:41;13.20;77.80
46926;DHT22;32667;48.248;-1.700;2023-12-29T11:06:09;13.20;77.70
46926;DHT22;32667;48.248;-1.700;2023-12-29T11:08:35;13.20;77.70
46926;DHT22;32667;48.248;-1.700;2023-12-29T11:11:03;13.20;77.70
46926;DHT22;32667;48.248;-1.700;2023-12-29T11:13:30;13.20;77.70
46926;DHT22;32667;48.248;-1.700;2023-12-29T11:15:57;13.20;77.80
46926;DHT22;32667;48.248;-1.700;2023-12-29T11:18:27;13.30;77.80
46926;DHT22;32667;48.248;-1.700;2023-12-29T11:20:53;13.30;77.70
46926;DHT22;32667;48.248;-1.700;2023-12-29T11:23:21;13.40;77.70
46926;DHT22;32667;48.248;-1.700;2023-12-29T11:25:49;13.40;77.60
46926;DHT22;32667;48.248;-1.700;2023-12-29T11:28:16;13.40;77.50
46926;DHT22;32667;48.248;-1.700;2023-12-29T11:30:43;13.40;77.50
46926;DHT22;32667;48.248;-1.700;2023-12-29T11:33:22;13.50;77.50
46926;DHT22;32667;48.248;-1.700;2023-12-29T11:36:13;13.50;77.50
46926;DHT22;32667;48.248;-1.700;2023-12-29T11:39:36;13.50;78.10
46926;DHT22;32667;48.248;-1.700;2023-12-29T11:41:50;13.50;77.50
46926;DHT22;32667;48.248;-1.700;2023-12-29T11:44:25;13.50;77.40
46926;DHT22;32667;48.248;-1.700;2023-12-29T11:47:03;13.60;77.50
46926;DHT22;32667;48.248;-1.700;2023-12-29T11:49:58;13.60;77.40
46926;DHT22;32667;48.248;-1.700;2023-12-29T11:52:38;13.70;77.30
46926;DHT22;32667;48.248;-1.700;2023-12-29T11:55:13;13.80;77.20
46926;DHT22;32667;48.248;-1.700;2023-12-29T11:57:46;13.80;77.10
46926;DHT22;32667;48.248;-1.700;2023-12-29T12:00:14;13.90;77.00
46926;DHT22;32667;48.248;-1.700;2023-12-29T12:02:41;13.90;76.90
46926;DHT22;32667;48.248;-1.700;2023-12-29T12:05:47;14.00;76.90
46926;DHT22;32667;48.248;-1.700;2023-12-29T12:10:52;14.10;76.80
46926;DHT22;32667;48.248;-1.700;2023-12-29T12:16:09;14.20;76.80
46926;DHT22;32667;48.248;-1.700;2023-12-29T12:18:37;14.20;76.80
46926;DHT22;32667;48.248;-1.700;2023-12-29T12:21:05;14.30;76.70
46926;DHT22;32667;48.248;-1.700;2023-12-29T12:23:33;14.30;76.60
46926;DHT22;32667;48.248;-1.700;2023-12-29T12:26:01;14.30;76.60
46926;DHT22;32667;48.248;-1.700;2023-12-29T12:28:29;14.30;76.70
46926;DHT22;32667;48.248;-1.700;2023-12-29T12:31:15;14.30;76.80
46926;DHT22;32667;48.248;-1.700;2023-12-29T12:33:57;14.30;76.90
46926;DHT22;32667;48.248;-1.700;2023-12-29T12:36:23;14.30;76.90
46926;DHT22;32667;48.248;-1.700;2023-12-29T12:38:54;14.40;76.90
46926;DHT22;32667;48.248;-1.700;2023-12-29T12:41:24;14.30;76.90
46926;DHT22;32667;48.248;-1.700;2023-12-29T12:44:08;14.40;77.00
46926;DHT22;32667;48.248;-1.700;2023-12-29T12:46:35;14.40;77.00
46926;DHT22;32667;48.248;-1.700;2023-12-29T12:49:05;14.40;76.90
46926;DHT22;32667;48.248;-1.700;2023-12-29T12:51:33;14.40;76.80
46926;DHT22;32667;48.248;-1.700;2023-12-29T12:54:00;14.50;76.90
46926;DHT22;32667;48.248;-1.700;2023-12-29T12:56:26;14.40;76.90
46926;DHT22;32667;48.248;-1.700;2023-12-29T12:58:56;14.40;76.90
46926;DHT22;32667;48.248;-1.700;2023-12-29T13:01:22;14.50;77.00
46926;DHT22;32667;48.248;-1.700;2023-12-29T13:03:48;14.50;77.00
46926;DHT22;32667;48.248;-1.700;2023-12-29T13:06:20;14.50;76.90
46926;DHT22;32667;48.248;-1.700;2023-12-29T13:08:49;14.50;76.90
46926;DHT22;32667;48.248;-1.700;2023-12-29T13:11:20;14.50;76.90
46926;DHT22;32667;48.248;-1.700;2023-12-29T13:13:53;14.50;77.00
46926;DHT22;32667;48.248;-1.700;2023-12-29T13:16:36;14.50;77.00
46926;DHT22;32667;48.248;-1.700;2023-12-29T13:19:22;14.40;77.00
46926;DHT22;32667;48.248;-1.700;2023-12-29T13:21:54;14.40;77.20
46926;DHT22;32667;48.248;-1.700;2023-12-29T13:24:23;14.30;77.20
46926;DHT22;32667;48.248;-1.700;2023-12-29T13:26:52;14.20;77.30
46926;DHT22;32667;48.248;-1.700;2023-12-29T13:29:24;14.20;77.40
46926;DHT22;32667;48.248;-1.700;2023-12-29T13:31:57;14.10;77.50
46926;DHT22;32667;48.248;-1.700;2023-12-29T13:35:05;14.00;77.60
46926;DHT22;32667;48.248;-1.700;2023-12-29T13:40:24;13.80;78.00
46926;DHT22;32667;48.248;-1.700;2023-12-29T13:42:57;13.70;78.20
46926;DHT22;32667;48.248;-1.700;2023-12-29T13:45:25;13.60;78.20
46926;DHT22;32667;48.248;-1.700;2023-12-29T13:47:51;13.50;78.30
46926;DHT22;32667;48.248;-1.700;2023-12-29T13:50:21;13.50;78.40
46926;DHT22;32667;48.248;-1.700;2023-12-29T13:52:47;13.40;78.40
46926;DHT22;32667;48.248;-1.700;2023-12-29T13:55:21;13.40;78.60
46926;DHT22;32667;48.248;-1.700;2023-12-29T13:57:48;13.40;78.60
46926;DHT22;32667;48.248;-1.700;2023-12-29T14:02:57;13.40;78.50
46926;DHT22;32667;48.248;-1.700;2023-12-29T14:07:55;13.40;78.50
46926;DHT22;32667;48.248;-1.700;2023-12-29T14:10:35;13.40;78.40
46926;DHT22;32667;48.248;-1.700;2023-12-29T14:13:08;13.40;78.40
46926;DHT22;32667;48.248;-1.700;2023-12-29T14:15:38;13.40;78.40
46926;DHT22;32667;48.248;-1.700;2023-12-29T14:20:41;13.40;78.50
46926;DHT22;32667;48.248;-1.700;2023-12-29T14:23:07;13.30;78.40
46926;DHT22;32667;48.248;-1.700;2023-12-29T14:25:36;13.30;78.50
46926;DHT22;32667;48.248;-1.700;2023-12-29T14:28:16;13.30;78.40
46926;DHT22;32667;48.248;-1.700;2023-12-29T14:30:43;13.20;78.40
46926;DHT22;32667;48.248;-1.700;2023-12-29T14:33:11;13.20;78.50
46926;DHT22;32667;48.248;-1.700;2023-12-29T14:35:39;13.20;78.50
46926;DHT22;32667;48.248;-1.700;2023-12-29T14:38:07;13.20;78.60
46926;DHT22;32667;48.248;-1.700;2023-12-29T14:40:33;13.20;78.60
46926;DHT22;32667;48.248;-1.700;2023-12-29T14:43:02;13.20;78.80
46926;DHT22;32667;48.248;-1.700;2023-12-29T14:45:37;13.10;78.60
46926;DHT22;32667;48.248;-1.700;2023-12-29T14:48:03;13.10;78.70
46926;DHT22;32667;48.248;-1.700;2023-12-29T14:50:29;13.10;78.70
46926;DHT22;32667;48.248;-1.700;2023-12-29T14:52:55;13.10;79.30
46926;DHT22;32667;48.248;-1.700;2023-12-29T14:55:20;13.10;78.70
46926;DHT22;32667;48.248;-1.700;2023-12-29T14:57:46;13.10;78.60
46926;DHT22;32667;48.248;-1.700;2023-12-29T15:00:13;13.10;78.60
46926;DHT22;32667;48.248;-1.700;2023-12-29T15:02:39;13.10;78.60
46926;DHT22;32667;48.248;-1.700;2023-12-29T15:05:07;13.10;78.70
46926;DHT22;32667;48.248;-1.700;2023-12-29T15:07:34;13.10;78.70
46926;DHT22;32667;48.248;-1.700;2023-12-29T15:10:00;13.10;78.70
46926;DHT22;32667;48.248;-1.700;2023-12-29T15:12:29;13.00;78.70
46926;DHT22;32667;48.248;-1.700;2023-12-29T15:14:55;13.00;78.80
46926;DHT22;32667;48.248;-1.700;2023-12-29T15:17:20;13.00;78.80
46926;DHT22;32667;48.248;-1.700;2023-12-29T15:19:48;13.00;78.90
46926;DHT22;32667;48.248;-1.700;2023-12-29T15:22:14;12.90;78.90
46926;DHT22;32667;48.248;-1.700;2023-12-29T15:24:47;12.90;78.90
46926;DHT22;32667;48.248;-1.700;2023-12-29T15:27:13;12.90;79.00
46926;DHT22;32667;48.248;-1.700;2023-12-29T15:29:39;12.80;79.00
46926;DHT22;32667;48.248;-1.700;2023-12-29T15:32:05;12.80;79.00
46926;DHT22;32667;48.248;-1.700;2023-12-29T15:34:30;12.80;79.10
46926;DHT22;32667;48.248;-1.700;2023-12-29T15:36:56;12.70;79.10
46926;DHT22;32667;48.248;-1.700;2023-12-29T15:39:22;12.70;79.20
46926;DHT22;32667;48.248;-1.700;2023-12-29T15:41:47;12.70;79.20
46926;DHT22;32667;48.248;-1.700;2023-12-29T15:44:13;12.60;79.20